Time;durP1;ratioP1;P1;durP2;ratioP2;P2;SDS_P1;SDS_P2;PMS_P1;PMS_P2;Temp;Humidity;BMP_temperature;BMP_pressure;BME280_temperature;BME280_humidity;BME280_pressure;Samples;Min_cycle;Max_cycle;Signal;HPM_P1;HPM_P2
2023/01/19 00:01:14;;;;;;;12.10;6.72;;;;;;;;;;1850981;76;21085;-61
2023/01/19 00:03:42;;;;;;;8.18;5.65;;;;;;;;;;1851952;77;21056;-61
2023/01/19 00:06:11;;;;;;;9.83;6.40;;;;;;;;;;1851947;77;21123;-61
2023/01/19 00:08:40;;;;;;;10.00;6.72;;;;;;;;;;1851964;77;21416;-61
2023/01/19 00:11:09;;;;;;;10.95;6.95;;;;;;;;;;1851984;77;21099;-61
2023/01/19 00:13:38;;;;;;;9.78;6.67;;;;;;;;;;1851994;77;21032;-61
2023/01/19 00:16:07;;;;;;;9.28;6.15;;;;;;;;;;1851987;76;21118;-61
2023/01/19 00:18:35;;;;;;;8.28;6.12;;;;;;;;;;1851828;76;21114;-60
2023/01/19 00:21:04;;;;;;;9.53;6.42;;;;;;;;;;1851865;77;21052;-61
2023/01/19 00:23:33;;;;;;;9.10;6.08;;;;;;;;;;1851958;77;21103;-61
2023/01/19 00:26:01;;;;;;;14.13;6.92;;;;;;;;;;1851877;77;21064;-60
2023/01/19 00:28:30;;;;;;;9.48;5.83;;;;;;;;;;1851963;76;21045;-60
2023/01/19 00:30:58;;;;;;;7.50;5.40;;;;;;;;;;1851762;76;21060;-61
2023/01/19 00:33:27;;;;;;;12.30;6.67;;;;;;;;;;1851739;76;21118;-61
2023/01/19 00:35:55;;;;;;;12.10;7.22;;;;;;;;;;1851786;76;21110;-60
2023/01/19 00:38:24;;;;;;;10.25;8.53;;;;;;;;;;1851760;77;21024;-61
2023/01/19 00:40:53;;;;;;;11.75;7.55;;;;;;;;;;1851770;76;21052;-61
2023/01/19 00:43:21;;;;;;;9.05;5.55;;;;;;;;;;1855643;76;21138;-61
2023/01/19 00:45:50;;;;;;;14.43;9.25;;;;;;;;;;1860148;77;21052;-61
2023/01/19 00:48:19;;;;;;;17.67;11.08;;;;;;;;;;1860124;77;21079;-61
2023/01/19 00:50:48;;;;;;;15.03;9.20;;;;;;;;;;1860130;76;21028;-60
2023/01/19 00:53:16;;;;;;;20.95;13.90;;;;;;;;;;1860054;77;21042;-60
2023/01/19 00:55:45;;;;;;;15.90;10.93;;;;;;;;;;1860263;77;21131;-61
2023/01/19 00:58:13;;;;;;;16.25;9.83;;;;;;;;;;1860095;77;21134;-61
2023/01/19 01:00:43;;;;;;;11.48;7.87;;;;;;;;;;1860119;76;21052;-60
2023/01/19 01:03:12;;;;;;;15.43;8.35;;;;;;;;;;1860101;77;21047;-60
2023/01/19 01:05:41;;;;;;;9.63;5.70;;;;;;;;;;1860247;77;21036;-60
2023/01/19 01:08:10;;;;;;;7.67;5.62;;;;;;;;;;1860183;77;21079;-61
2023/01/19 01:10:38;;;;;;;13.98;7.67;;;;;;;;;;1860045;77;21050;-60
2023/01/19 01:13:07;;;;;;;8.68;6.37;;;;;;;;;;1860059;77;21118;-60
2023/01/19 01:15:36;;;;;;;10.75;6.47;;;;;;;;;;1860218;77;21048;-61
2023/01/19 01:18:05;;;;;;;8.05;5.90;;;;;;;;;;1860094;77;21106;-60
2023/01/19 01:20:35;;;;;;;8.98;5.65;;;;;;;;;;1860241;77;21111;-60
2023/01/19 01:23:03;;;;;;;9.73;5.60;;;;;;;;;;1860057;77;21506;-60
2023/01/19 01:25:36;;;;;;;6.92;5.30;;;;;;;;;;1860124;76;21110;-61
2023/01/19 01:28:03;;;;;;;9.50;4.83;;;;;;;;;;1859686;77;21549;-61
2023/01/19 01:30:32;;;;;;;7.55;4.62;;;;;;;;;;1860196;77;21064;-60
2023/01/19 01:33:01;;;;;;;8.60;4.33;;;;;;;;;;1860129;77;21048;-61
2023/01/19 01:35:29;;;;;;;7.78;4.10;;;;;;;;;;1860264;77;21059;-60
2023/01/19 01:37:58;;;;;;;5.30;3.92;;;;;;;;;;1860123;77;21107;-61
2023/01/19 01:40:27;;;;;;;5.12;3.95;;;;;;;;;;1860126;77;21081;-61
2023/01/19 01:42:56;;;;;;;5.40;4.20;;;;;;;;;;1859268;76;21032;-60
2023/01/19 01:45:34;;;;;;;7.87;4.30;;;;;;;;;;1851809;76;21021;-61
2023/01/19 01:48:16;;;;;;;8.05;4.90;;;;;;;;;;1851643;76;21561;-60
2023/01/19 01:51:22;;;;;;;6.80;4.50;;;;;;;;;;1851022;76;21009;-60
2023/01/19 01:53:16;;;;;;;7.47;4.65;;;;;;;;;;1847015;77;21110;-61
2023/01/19 01:55:46;;;;;;;6.33;4.58;;;;;;;;;;1851867;77;21130;-61
2023/01/19 01:58:16;;;;;;;8.15;4.95;;;;;;;;;;1851725;76;21118;-60
2023/01/19 02:03:31;;;;;;;8.45;4.53;;;;;;;;;;1851744;77;21130;-61
2023/01/19 02:06:01;;;;;;;5.47;3.77;;;;;;;;;;1851700;76;21098;-60
2023/01/19 02:14:07;;;;;;;6.50;4.50;;;;;;;;;;1851761;77;21049;-60
2023/01/19 02:16:37;;;;;;;15.32;8.33;;;;;;;;;;1851816;76;21025;-60
2023/01/19 02:19:07;;;;;;;7.58;4.80;;;;;;;;;;1851888;77;21016;-60
2023/01/19 02:21:41;;;;;;;10.20;5.75;;;;;;;;;;1851799;76;21032;-60
2023/01/19 02:24:09;;;;;;;7.43;4.83;;;;;;;;;;1852099;77;21537;-61
2023/01/19 02:26:39;;;;;;;10.60;5.30;;;;;;;;;;1851943;76;21293;-61
2023/01/19 02:29:15;;;;;;;15.13;8.53;;;;;;;;;;1851887;77;20996;-60
2023/01/19 02:31:47;;;;;;;23.07;10.38;;;;;;;;;;1851751;77;21048;-61
2023/01/19 02:34:17;;;;;;;26.23;10.43;;;;;;;;;;1851849;76;21118;-61
2023/01/19 02:36:53;;;;;;;21.87;9.60;;;;;;;;;;1851849;76;21013;-61
2023/01/19 02:39:29;;;;;;;18.05;9.05;;;;;;;;;;1851951;77;21041;-60
2023/01/19 02:41:59;;;;;;;51.53;17.98;;;;;;;;;;1850920;76;21136;-60
2023/01/19 02:44:27;;;;;;;30.20;12.33;;;;;;;;;;1851745;76;21036;-61
2023/01/19 02:46:56;;;;;;;23.35;10.23;;;;;;;;;;1851684;76;21009;-61
2023/01/19 02:49:26;;;;;;;9.13;5.92;;;;;;;;;;1851699;77;21048;-61
2023/01/19 02:51:55;;;;;;;9.98;6.05;;;;;;;;;;1851645;77;21021;-60
2023/01/19 02:54:25;;;;;;;8.20;5.30;;;;;;;;;;1851676;76;21056;-60
2023/01/19 02:57:04;;;;;;;17.17;7.67;;;;;;;;;;1851623;77;21033;-60
2023/01/19 02:59:40;;;;;;;18.75;8.65;;;;;;;;;;1850165;77;21122;-60
2023/01/19 03:02:10;;;;;;;20.72;10.68;;;;;;;;;;1851338;76;21064;-60
2023/01/19 03:04:43;;;;;;;18.12;10.82;;;;;;;;;;1851692;77;21127;-60
2023/01/19 03:07:12;;;;;;;24.70;12.33;;;;;;;;;;1851653;77;21028;-60
2023/01/19 03:09:48;;;;;;;33.48;15.72;;;;;;;;;;1851683;77;21004;-60
2023/01/19 03:12:21;;;;;;;24.70;12.58;;;;;;;;;;1851604;76;21122;-60
2023/01/19 03:14:51;;;;;;;25.15;11.78;;;;;;;;;;1851172;76;21065;-60
2023/01/19 03:17:21;;;;;;;34.45;13.65;;;;;;;;;;1851709;76;21533;-60
2023/01/19 03:19:50;;;;;;;25.08;11.38;;;;;;;;;;1851786;77;21084;-60
2023/01/19 03:22:20;;;;;;;24.47;10.88;;;;;;;;;;1851823;77;21076;-60
2023/01/19 03:24:50;;;;;;;18.77;9.50;;;;;;;;;;1851301;76;21036;-60
2023/01/19 03:27:19;;;;;;;29.23;10.88;;;;;;;;;;1851824;76;21079;-60
2023/01/19 03:29:49;;;;;;;30.05;10.55;;;;;;;;;;1851894;77;21009;-60
2023/01/19 03:32:20;;;;;;;23.60;9.65;;;;;;;;;;1851660;77;21107;-60
2023/01/19 03:34:50;;;;;;;24.18;9.38;;;;;;;;;;1851974;76;21032;-60
2023/01/19 03:37:19;;;;;;;18.12;9.08;;;;;;;;;;1852093;77;21077;-60
2023/01/19 03:39:47;;;;;;;17.15;6.92;;;;;;;;;;1851982;76;21044;-60
2023/01/19 03:42:16;;;;;;;13.15;7.35;;;;;;;;;;1851932;77;21036;-60
2023/01/19 03:44:49;;;;;;;11.68;7.40;;;;;;;;;;1855526;76;21065;-60
2023/01/19 03:47:16;;;;;;;12.00;6.60;;;;;;;;;;1859856;77;21230;-60
2023/01/19 03:49:46;;;;;;;16.23;6.97;;;;;;;;;;1860381;77;21052;-60
2023/01/19 03:52:14;;;;;;;19.10;7.95;;;;;;;;;;1860288;77;21438;-60
2023/01/19 03:54:43;;;;;;;20.17;6.97;;;;;;;;;;1860315;77;21048;-60
2023/01/19 03:57:12;;;;;;;17.20;7.65;;;;;;;;;;1860284;77;21110;-60
2023/01/19 03:59:40;;;;;;;17.75;7.47;;;;;;;;;;1860406;77;21137;-60
2023/01/19 04:02:09;;;;;;;26.37;9.63;;;;;;;;;;1860441;77;21037;-60
2023/01/19 04:04:37;;;;;;;15.55;7.75;;;;;;;;;;1860335;77;21106;-60
2023/01/19 04:07:06;;;;;;;16.70;7.33;;;;;;;;;;1860090;77;21048;-60
2023/01/19 04:09:34;;;;;;;21.15;7.53;;;;;;;;;;1860085;77;21576;-60
2023/01/19 04:12:03;;;;;;;26.82;8.35;;;;;;;;;;1860103;77;21102;-60
2023/01/19 04:14:31;;;;;;;22.65;8.30;;;;;;;;;;1860201;77;21052;-60
2023/01/19 04:17:00;;;;;;;24.20;9.15;;;;;;;;;;1860215;77;21102;-60
2023/01/19 04:19:28;;;;;;;19.90;8.13;;;;;;;;;;1860087;76;21048;-60
2023/01/19 04:21:57;;;;;;;25.02;7.55;;;;;;;;;;1860195;77;21090;-61
2023/01/19 04:24:26;;;;;;;27.52;9.05;;;;;;;;;;1860059;77;21044;-60
2023/01/19 04:26:56;;;;;;;24.23;9.50;;;;;;;;;;1860180;77;21094;-60
2023/01/19 04:29:24;;;;;;;40.25;10.65;;;;;;;;;;1860148;77;21032;-60
2023/01/19 04:31:52;;;;;;;49.15;19.55;;;;;;;;;;1860029;77;21044;-60
2023/01/19 04:34:21;;;;;;;47.45;17.92;;;;;;;;;;1860261;77;21020;-60
2023/01/19 04:36:50;;;;;;;69.75;19.57;;;;;;;;;;1860202;77;21129;-60
2023/01/19 04:39:19;;;;;;;46.53;14.15;;;;;;;;;;1860136;77;21053;-60
2023/01/19 04:41:47;;;;;;;36.40;14.18;;;;;;;;;;1860081;77;21037;-60
2023/01/19 04:44:16;;;;;;;26.12;10.43;;;;;;;;;;1860113;76;21032;-60
2023/01/19 04:46:45;;;;;;;36.10;11.60;;;;;;;;;;1860103;77;21077;-60
2023/01/19 04:49:14;;;;;;;30.12;10.75;;;;;;;;;;1860169;77;21024;-60
2023/01/19 04:51:42;;;;;;;25.02;9.20;;;;;;;;;;1860133;76;21028;-60
2023/01/19 04:54:12;;;;;;;23.70;8.25;;;;;;;;;;1859125;77;21047;-60
2023/01/19 04:56:41;;;;;;;33.48;7.90;;;;;;;;;;1859985;77;21032;-60
2023/01/19 04:59:09;;;;;;;16.15;9.30;;;;;;;;;;1860056;77;21028;-60
2023/01/19 05:01:38;;;;;;;22.65;8.95;;;;;;;;;;1860096;77;21032;-60
2023/01/19 05:04:07;;;;;;;18.17;8.48;;;;;;;;;;1860028;77;21148;-60
2023/01/19 05:06:36;;;;;;;22.22;9.35;;;;;;;;;;1860075;77;20992;-60
2023/01/19 05:09:06;;;;;;;28.98;8.60;;;;;;;;;;1860098;77;21045;-60
2023/01/19 05:11:35;;;;;;;33.88;9.98;;;;;;;;;;1859972;77;21094;-60
2023/01/19 05:14:03;;;;;;;27.13;9.15;;;;;;;;;;1860045;77;21036;-60
2023/01/19 05:16:32;;;;;;;34.38;12.33;;;;;;;;;;1860084;77;21106;-60
2023/01/19 05:19:00;;;;;;;66.12;20.40;;;;;;;;;;1860066;77;21036;-60
2023/01/19 05:21:29;;;;;;;41.65;17.35;;;;;;;;;;1860059;76;21048;-62
2023/01/19 05:23:58;;;;;;;55.78;20.50;;;;;;;;;;1860200;77;21040;-62
2023/01/19 05:26:26;;;;;;;39.67;14.05;;;;;;;;;;1860077;77;21131;-62
2023/01/19 05:28:55;;;;;;;46.77;14.38;;;;;;;;;;1860055;76;21106;-60
2023/01/19 05:31:24;;;;;;;25.82;9.85;;;;;;;;;;1859968;76;21048;-60
2023/01/19 05:33:52;;;;;;;33.45;10.50;;;;;;;;;;1860029;77;21028;-60
2023/01/19 05:36:21;;;;;;;52.50;16.00;;;;;;;;;;1860062;76;21044;-59
2023/01/19 05:38:49;;;;;;;122.28;29.72;;;;;;;;;;1860146;77;21044;-60
2023/01/19 05:41:18;;;;;;;57.88;21.05;;;;;;;;;;1860001;77;21048;-60
2023/01/19 05:43:46;;;;;;;77.82;21.48;;;;;;;;;;1860322;77;21048;-60
2023/01/19 05:46:14;;;;;;;56.28;14.85;;;;;;;;;;1871449;76;21125;-60
2023/01/19 05:48:43;;;;;;;65.05;16.00;;;;;;;;;;1878424;76;21466;-60
2023/01/19 05:51:12;;;;;;;54.60;17.42;;;;;;;;;;1878432;76;21027;-60
2023/01/19 05:53:41;;;;;;;77.75;16.48;;;;;;;;;;1878347;76;21079;-60
2023/01/19 05:56:09;;;;;;;43.95;14.63;;;;;;;;;;1878239;76;21039;-60
2023/01/19 05:58:41;;;;;;;55.52;17.12;;;;;;;;;;1878267;76;21015;-60
2023/01/19 06:01:10;;;;;;;82.12;22.75;;;;;;;;;;1878366;76;21513;-60
2023/01/19 06:03:38;;;;;;;70.75;22.07;;;;;;;;;;1878270;76;21050;-60
2023/01/19 06:06:07;;;;;;;46.15;17.32;;;;;;;;;;1878432;76;21047;-60
2023/01/19 06:08:35;;;;;;;49.45;18.02;;;;;;;;;;1878291;76;20996;-60
2023/01/19 06:11:05;;;;;;;50.17;16.30;;;;;;;;;;1878398;76;21036;-60
2023/01/19 06:13:34;;;;;;;50.67;17.30;;;;;;;;;;1878382;76;21044;-60
2023/01/19 06:16:08;;;;;;;40.10;14.15;;;;;;;;;;1878515;76;21035;-60
2023/01/19 06:18:33;;;;;;;40.43;16.12;;;;;;;;;;1877764;76;21031;-60
2023/01/19 06:21:06;;;;;;;62.53;18.90;;;;;;;;;;1878403;76;21106;-60
2023/01/19 06:23:35;;;;;;;67.58;20.02;;;;;;;;;;1878479;76;21043;-60
2023/01/19 06:26:04;;;;;;;53.02;19.42;;;;;;;;;;1878375;76;21074;-60
2023/01/19 06:28:32;;;;;;;38.92;14.10;;;;;;;;;;1878379;76;21110;-60
2023/01/19 06:31:01;;;;;;;47.00;17.20;;;;;;;;;;1878473;76;21087;-60
2023/01/19 06:33:29;;;;;;;55.33;19.42;;;;;;;;;;1878315;76;21043;-60
2023/01/19 06:35:58;;;;;;;61.55;17.92;;;;;;;;;;1878282;76;21052;-60
2023/01/19 06:38:27;;;;;;;40.88;16.50;;;;;;;;;;1878295;76;21048;-60
2023/01/19 06:41:01;;;;;;;82.00;27.70;;;;;;;;;;1878415;76;21109;-60
2023/01/19 06:43:30;;;;;;;69.05;24.30;;;;;;;;;;1878412;76;21693;-60
2023/01/19 06:46:12;;;;;;;71.62;23.42;;;;;;;;;;1872575;76;21056;-60
2023/01/19 06:48:40;;;;;;;57.78;20.45;;;;;;;;;;1935114;74;21037;-62
2023/01/19 06:51:09;;;;;;;70.30;22.65;;;;;;;;;;1934961;74;21135;-63
2023/01/19 06:53:38;;;;;;;63.23;20.52;;;;;;;;;;1935060;74;21005;-61
2023/01/19 06:56:08;;;;;;;69.95;22.98;;;;;;;;;;1935203;74;21091;-61
2023/01/19 06:58:36;;;;;;;59.13;20.40;;;;;;;;;;1935025;74;21021;-61
2023/01/19 07:01:05;;;;;;;55.92;18.73;;;;;;;;;;1935061;73;21159;-61
2023/01/19 07:03:34;;;;;;;54.18;17.42;;;;;;;;;;1935075;73;21052;-61
2023/01/19 07:06:05;;;;;;;51.30;18.52;;;;;;;;;;1935174;73;21025;-61
2023/01/19 07:08:34;;;;;;;45.45;15.65;;;;;;;;;;1935059;74;21479;-60
2023/01/19 07:11:04;;;;;;;36.15;12.90;;;;;;;;;;1934031;74;21138;-61
2023/01/19 07:13:34;;;;;;;31.90;13.03;;;;;;;;;;1934965;74;21067;-62
2023/01/19 07:16:05;;;;;;;31.00;12.35;;;;;;;;;;1935162;73;21122;-61
2023/01/19 07:18:34;;;;;;;17.62;11.73;;;;;;;;;;1935034;74;21095;-61
2023/01/19 07:21:02;;;;;;;23.85;11.38;;;;;;;;;;1935036;74;21041;-61
2023/01/19 07:23:31;;;;;;;26.87;10.78;;;;;;;;;;1935031;73;21087;-62
2023/01/19 07:26:00;;;;;;;21.73;10.35;;;;;;;;;;1935005;73;21009;-62
2023/01/19 07:28:29;;;;;;;17.30;9.33;;;;;;;;;;1935066;74;21087;-61
2023/01/19 07:30:58;;;;;;;19.57;9.95;;;;;;;;;;1935101;74;21079;-62
2023/01/19 07:33:27;;;;;;;13.78;9.23;;;;;;;;;;1934985;74;20996;-62
2023/01/19 07:35:55;;;;;;;15.13;7.22;;;;;;;;;;1935157;73;21107;-62
2023/01/19 07:38:24;;;;;;;16.97;8.00;;;;;;;;;;1935011;73;21095;-62
2023/01/19 07:40:54;;;;;;;16.10;7.10;;;;;;;;;;1935058;74;21150;-62
2023/01/19 07:43:22;;;;;;;16.75;8.05;;;;;;;;;;1933693;73;21158;-62
2023/01/19 07:45:51;;;;;;;18.27;7.42;;;;;;;;;;1935004;73;21025;-61
2023/01/19 07:48:19;;;;;;;12.90;8.03;;;;;;;;;;1937151;74;21041;-62
2023/01/19 07:50:48;;;;;;;15.90;7.75;;;;;;;;;;1938571;73;21033;-62
2023/01/19 07:53:17;;;;;;;14.47;7.42;;;;;;;;;;1938434;73;21032;-62
2023/01/19 07:55:46;;;;;;;11.30;6.58;;;;;;;;;;1938617;74;21048;-62
2023/01/19 07:58:14;;;;;;;8.60;6.17;;;;;;;;;;1938600;73;21149;-61
2023/01/19 08:00:42;;;;;;;14.18;7.35;;;;;;;;;;1938545;73;21102;-62
2023/01/19 08:03:11;;;;;;;8.20;5.55;;;;;;;;;;1938489;73;21032;-62
2023/01/19 08:05:40;;;;;;;6.80;4.72;;;;;;;;;;1938678;73;21013;-61
2023/01/19 08:08:10;;;;;;;6.08;4.37;;;;;;;;;;1938475;73;21037;-61
2023/01/19 08:10:38;;;;;;;7.85;5.28;;;;;;;;;;1938481;73;21074;-62
2023/01/19 08:13:07;;;;;;;6.22;4.33;;;;;;;;;;1938555;73;21103;-62
2023/01/19 08:15:35;;;;;;;11.65;5.65;;;;;;;;;;1938550;73;21012;-62
2023/01/19 08:18:04;;;;;;;9.70;4.58;;;;;;;;;;1937569;73;21071;-66
2023/01/19 08:20:33;;;;;;;10.03;4.15;;;;;;;;;;1937827;73;21087;-65
2023/01/19 08:23:01;;;;;;;5.95;3.40;;;;;;;;;;1937948;74;21130;-65
2023/01/19 08:25:34;;;;;;;27.60;4.80;;;;;;;;;;1937843;73;21021;-65
2023/01/19 08:28:03;;;;;;;5.92;3.55;;;;;;;;;;1938186;73;21092;-65
2023/01/19 08:30:31;;;;;;;7.90;3.85;;;;;;;;;;1938095;73;21103;-63
2023/01/19 08:33:02;;;;;;;9.73;3.27;;;;;;;;;;1937801;74;21102;-69
2023/01/19 08:35:31;;;;;;;4.10;3.08;;;;;;;;;;1938100;74;21092;-67
2023/01/19 08:38:02;;;;;;;5.35;3.80;;;;;;;;;;1938025;74;21020;-64
2023/01/19 08:40:36;;;;;;;3.85;2.58;;;;;;;;;;1938059;74;21073;-67
2023/01/19 08:43:05;;;;;;;7.33;4.08;;;;;;;;;;1936800;73;21604;-68
2023/01/19 08:45:33;;;;;;;8.10;3.92;;;;;;;;;;1938284;74;21529;-70
2023/01/19 08:48:02;;;;;;;5.95;2.98;;;;;;;;;;1936830;73;21099;-69
2023/01/19 08:50:32;;;;;;;4.65;3.37;;;;;;;;;;1934619;74;21119;-68
2023/01/19 08:53:01;;;;;;;5.92;3.47;;;;;;;;;;1934438;74;21016;-67
2023/01/19 08:55:30;;;;;;;5.87;3.10;;;;;;;;;;1934365;73;21123;-68
2023/01/19 08:57:58;;;;;;;5.62;3.17;;;;;;;;;;1934624;73;21031;-68
2023/01/19 09:00:30;;;;;;;6.17;3.40;;;;;;;;;;1934609;74;21068;-65
2023/01/19 09:02:57;;;;;;;6.70;3.77;;;;;;;;;;1934310;73;21481;-69
2023/01/19 09:05:26;;;;;;;4.45;3.65;;;;;;;;;;1934545;74;21044;-65
2023/01/19 09:07:54;;;;;;;10.75;3.90;;;;;;;;;;1934265;73;21084;-67
2023/01/19 09:10:23;;;;;;;6.70;4.15;;;;;;;;;;1934389;74;21005;-68
2023/01/19 09:12:51;;;;;;;5.70;3.85;;;;;;;;;;1934544;73;21432;-71
2023/01/19 09:15:24;;;;;;;4.95;3.50;;;;;;;;;;1889670;72;21184;-65
2023/01/19 09:17:53;;;;;;;10.32;3.70;;;;;;;;;;1888148;76;21629;-63
2023/01/19 09:20:22;;;;;;;6.25;3.47;;;;;;;;;;1888177;74;21119;-66
2023/01/19 09:22:50;;;;;;;5.87;3.40;;;;;;;;;;1888425;74;21144;-67
2023/01/19 09:25:19;;;;;;;5.70;2.98;;;;;;;;;;1888235;76;21050;-67
2023/01/19 09:27:48;;;;;;;6.05;3.67;;;;;;;;;;1888244;76;21148;-64
2023/01/19 09:30:16;;;;;;;5.00;3.70;;;;;;;;;;1888297;76;21096;-64
2023/01/19 09:32:45;;;;;;;4.33;3.47;;;;;;;;;;1888108;76;21042;-63
2023/01/19 09:35:14;;;;;;;7.70;3.17;;;;;;;;;;1888252;74;21042;-64
2023/01/19 09:37:44;;;;;;;4.40;3.17;;;;;;;;;;1888050;76;21356;-66
2023/01/19 09:40:13;;;;;;;3.58;2.83;;;;;;;;;;1888161;76;21088;-67
2023/01/19 09:42:42;;;;;;;4.42;3.27;;;;;;;;;;1888207;76;21030;-67
2023/01/19 09:45:12;;;;;;;3.72;2.92;;;;;;;;;;1888347;76;21026;-67
2023/01/19 09:47:41;;;;;;;5.30;3.58;;;;;;;;;;1888126;76;21026;-67
2023/01/19 09:50:11;;;;;;;4.95;3.45;;;;;;;;;;1888243;76;21046;-67
2023/01/19 09:52:41;;;;;;;3.72;2.95;;;;;;;;;;1888185;76;21074;-66
2023/01/19 09:55:11;;;;;;;5.30;2.90;;;;;;;;;;1888193;76;21026;-66
2023/01/19 09:57:39;;;;;;;5.35;3.72;;;;;;;;;;1876511;76;21103;-67
2023/01/19 10:00:09;;;;;;;5.28;3.52;;;;;;;;;;1888276;76;21037;-63
2023/01/19 10:02:44;;;;;;;4.80;3.83;;;;;;;;;;1887898;76;21092;-66
2023/01/19 10:05:31;;;;;;;5.15;3.90;;;;;;;;;;1887138;76;21179;-67
2023/01/19 10:08:02;;;;;;;4.55;3.40;;;;;;;;;;1888229;75;21107;-64
2023/01/19 10:10:31;;;;;;;6.03;3.62;;;;;;;;;;1888062;76;21030;-64
2023/01/19 10:13:18;;;;;;;8.85;3.75;;;;;;;;;;1888128;74;21050;-64
2023/01/19 10:15:54;;;;;;;7.67;3.85;;;;;;;;;;1888246;75;21074;-63
2023/01/19 10:18:42;;;;;;;4.80;3.27;;;;;;;;;;1853166;76;21022;-63
2023/01/19 10:21:09;;;;;;;4.53;3.25;;;;;;;;;;1887312;76;21621;-62
2023/01/19 10:23:57;;;;;;;4.65;3.40;;;;;;;;;;1888232;76;21467;-62
2023/01/19 10:26:27;;;;;;;5.65;3.55;;;;;;;;;;1888122;76;21101;-63
2023/01/19 10:28:57;;;;;;;8.65;3.08;;;;;;;;;;1887890;76;21077;-63
2023/01/19 10:31:25;;;;;;;5.20;3.35;;;;;;;;;;1887943;76;21065;-64
2023/01/19 10:33:54;;;;;;;37.50;17.15;;;;;;;;;;1888120;76;21089;-63
2023/01/19 10:36:28;;;;;;;4.03;2.70;;;;;;;;;;1888215;76;21062;-62
2023/01/19 10:38:57;;;;;;;9.98;4.55;;;;;;;;;;1888132;76;21054;-62
2023/01/19 10:41:27;;;;;;;7.15;3.40;;;;;;;;;;1888159;76;21045;-61
2023/01/19 10:44:00;;;;;;;9.45;5.58;;;;;;;;;;1888301;76;21065;-62
2023/01/19 10:46:32;;;;;;;9.05;5.28;;;;;;;;;;1886884;76;21089;-66
2023/01/19 10:49:01;;;;;;;5.12;3.00;;;;;;;;;;1888191;76;21107;-64
2023/01/19 10:51:30;;;;;;;6.05;3.00;;;;;;;;;;1888207;76;21074;-64
2023/01/19 10:54:02;;;;;;;6.35;3.10;;;;;;;;;;1888129;76;21085;-61
2023/01/19 10:56:33;;;;;;;4.42;2.85;;;;;;;;;;1886105;76;21163;-64
2023/01/19 10:59:02;;;;;;;6.58;4.08;;;;;;;;;;1888385;76;21161;-65
2023/01/19 11:01:34;;;;;;;7.10;3.67;;;;;;;;;;1887979;76;21139;-65
2023/01/19 11:04:04;;;;;;;3.80;2.92;;;;;;;;;;1887941;76;21591;-56
2023/01/19 11:06:32;;;;;;;5.87;2.95;;;;;;;;;;1888026;76;21112;-56
2023/01/19 11:09:11;;;;;;;11.48;3.85;;;;;;;;;;1887781;76;21105;-59
2023/01/19 11:11:44;;;;;;;11.43;7.12;;;;;;;;;;1886935;76;21124;-58
2023/01/19 11:14:14;;;;;;;5.65;3.55;;;;;;;;;;1888312;75;21072;-59
2023/01/19 11:16:43;;;;;;;3.87;3.15;;;;;;;;;;1888215;76;21070;-59
2023/01/19 11:19:13;;;;;;;6.00;3.08;;;;;;;;;;1888255;76;21147;-59
2023/01/19 11:21:42;;;;;;;4.78;3.00;;;;;;;;;;1887625;76;21034;-59
2023/01/19 11:24:15;;;;;;;4.62;3.10;;;;;;;;;;1888142;76;21081;-59
2023/01/19 11:26:42;;;;;;;5.10;2.80;;;;;;;;;;1887108;76;21642;-59
2023/01/19 11:29:21;;;;;;;6.45;2.77;;;;;;;;;;1888343;76;21045;-59
2023/01/19 11:31:51;;;;;;;6.08;3.50;;;;;;;;;;1888036;76;21050;-59
2023/01/19 11:34:26;;;;;;;9.10;5.87;;;;;;;;;;1888285;76;21151;-59
2023/01/19 11:36:56;;;;;;;5.67;4.22;;;;;;;;;;1888029;76;21030;-58
2023/01/19 11:39:26;;;;;;;7.60;4.20;;;;;;;;;;1888181;76;21547;-60
2023/01/19 11:41:57;;;;;;;4.55;3.65;;;;;;;;;;1889136;76;21026;-60
2023/01/19 11:44:36;;;;;;;4.47;3.35;;;;;;;;;;1888988;76;21083;-60
2023/01/19 11:47:08;;;;;;;5.12;2.90;;;;;;;;;;1886952;76;21092;-60
2023/01/19 11:49:38;;;;;;;5.30;3.75;;;;;;;;;;1888180;76;21097;-60
2023/01/19 11:52:08;;;;;;;7.03;3.10;;;;;;;;;;1888949;76;21026;-61
2023/01/19 11:54:38;;;;;;;5.17;3.45;;;;;;;;;;1888834;76;21457;-61
2023/01/19 11:57:08;;;;;;;4.83;2.67;;;;;;;;;;1888766;76;21144;-61
2023/01/19 11:59:37;;;;;;;5.33;2.90;;;;;;;;;;1888733;76;21030;-61
2023/01/19 12:02:06;;;;;;;4.40;2.75;;;;;;;;;;1888971;76;21037;-61
2023/01/19 12:04:38;;;;;;;9.93;3.65;;;;;;;;;;1885816;75;21053;-61
2023/01/19 12:07:09;;;;;;;4.62;3.33;;;;;;;;;;1888881;76;21132;-60
2023/01/19 12:09:41;;;;;;;4.12;2.98;;;;;;;;;;1888862;76;21140;-61
2023/01/19 12:12:17;;;;;;;3.12;2.77;;;;;;;;;;1886048;76;21070;-61
2023/01/19 12:14:58;;;;;;;8.28;3.30;;;;;;;;;;1888449;76;21191;-60
2023/01/19 12:17:32;;;;;;;8.10;2.85;;;;;;;;;;1888840;76;21049;-61
2023/01/19 12:20:04;;;;;;;4.35;2.33;;;;;;;;;;1880454;76;21092;-61
2023/01/19 12:22:34;;;;;;;5.05;2.98;;;;;;;;;;1888905;76;21123;-61
2023/01/19 12:25:04;;;;;;;4.60;2.67;;;;;;;;;;1888962;76;21112;-61
2023/01/19 12:27:47;;;;;;;8.63;2.87;;;;;;;;;;1888655;76;21054;-61
2023/01/19 12:30:22;;;;;;;3.60;2.60;;;;;;;;;;1888826;76;21566;-61
2023/01/19 12:32:51;;;;;;;4.75;2.77;;;;;;;;;;1888986;75;21006;-61
2023/01/19 12:35:37;;;;;;;3.75;2.60;;;;;;;;;;1888839;76;21053;-61
2023/01/19 12:38:24;;;;;;;5.60;3.15;;;;;;;;;;1888888;76;21085;-60
2023/01/19 12:40:54;;;;;;;3.67;2.85;;;;;;;;;;1888862;75;21115;-60
2023/01/19 12:43:23;;;;;;;8.58;2.92;;;;;;;;;;1885283;76;21070;-61
2023/01/19 12:45:51;;;;;;;5.37;3.40;;;;;;;;;;1888866;75;21041;-60
2023/01/19 12:48:27;;;;;;;7.55;4.00;;;;;;;;;;1888868;75;21050;-60
2023/01/19 12:50:55;;;;;;;9.55;4.15;;;;;;;;;;1888981;76;21026;-60
2023/01/19 12:53:25;;;;;;;8.98;3.62;;;;;;;;;;1888813;75;21175;-61
2023/01/19 12:56:01;;;;;;;13.65;5.15;;;;;;;;;;1888873;76;21108;-60
2023/01/19 12:58:29;;;;;;;17.35;6.05;;;;;;;;;;1888863;76;21026;-61
2023/01/19 13:01:17;;;;;;;9.10;4.22;;;;;;;;;;1887460;76;21030;-61
2023/01/19 13:03:47;;;;;;;6.55;3.95;;;;;;;;;;1888892;76;21073;-61
2023/01/19 13:06:16;;;;;;;7.65;4.10;;;;;;;;;;1877071;76;21033;-61
2023/01/19 13:08:57;;;;;;;13.28;4.62;;;;;;;;;;1888903;76;21125;-60
2023/01/19 13:11:26;;;;;;;13.28;4.83;;;;;;;;;;1888795;76;21081;-61
2023/01/19 13:14:02;;;;;;;12.88;5.95;;;;;;;;;;1888867;76;21065;-61
2023/01/19 13:16:31;;;;;;;12.47;5.95;;;;;;;;;;1895611;75;21143;-60
2023/01/19 13:19:07;;;;;;;17.12;5.30;;;;;;;;;;1898746;75;21508;-60
2023/01/19 13:21:42;;;;;;;12.75;4.17;;;;;;;;;;1898731;75;21109;-61
2023/01/19 13:24:09;;;;;;;10.08;4.50;;;;;;;;;;1897868;75;21561;-60
2023/01/19 13:26:39;;;;;;;12.70;4.35;;;;;;;;;;1897689;75;21065;-61
2023/01/19 13:29:12;;;;;;;16.95;6.30;;;;;;;;;;1898769;75;21061;-61
2023/01/19 13:31:41;;;;;;;23.35;8.05;;;;;;;;;;1898696;75;21091;-61
2023/01/19 13:34:11;;;;;;;10.53;5.00;;;;;;;;;;1898814;75;21018;-61
2023/01/19 13:36:41;;;;;;;12.13;4.12;;;;;;;;;;1897533;75;21057;-61
2023/01/19 13:39:14;;;;;;;9.38;4.17;;;;;;;;;;1898799;75;21498;-61
2023/01/19 13:41:42;;;;;;;15.85;4.22;;;;;;;;;;1897151;75;21025;-61
2023/01/19 13:44:22;;;;;;;22.45;6.30;;;;;;;;;;1898781;75;21041;-61
2023/01/19 13:46:51;;;;;;;15.98;6.30;;;;;;;;;;1803855;75;21085;-61
2023/01/19 13:49:31;;;;;;;17.62;8.03;;;;;;;;;;1898811;75;21009;-61
2023/01/19 13:52:00;;;;;;;13.15;5.90;;;;;;;;;;1898697;75;21049;-61
2023/01/19 13:54:29;;;;;;;12.53;6.25;;;;;;;;;;1886845;75;21105;-61
2023/01/19 13:56:58;;;;;;;12.07;6.03;;;;;;;;;;1898836;75;21037;-61
2023/01/19 13:59:26;;;;;;;11.45;6.22;;;;;;;;;;1898890;75;21124;-61
2023/01/19 14:01:56;;;;;;;14.47;5.33;;;;;;;;;;1898618;75;21037;-61
2023/01/19 14:04:26;;;;;;;9.18;6.25;;;;;;;;;;1897472;75;21112;-61
2023/01/19 14:06:55;;;;;;;10.45;4.22;;;;;;;;;;1898764;75;21041;-61
2023/01/19 14:09:24;;;;;;;8.93;4.95;;;;;;;;;;1898886;74;21018;-61
2023/01/19 14:12:09;;;;;;;15.43;5.25;;;;;;;;;;1898677;75;21107;-61
2023/01/19 14:14:38;;;;;;;16.70;5.85;;;;;;;;;;1898843;75;21119;-60
2023/01/19 14:17:08;;;;;;;25.10;7.67;;;;;;;;;;1898852;75;21108;-60
2023/01/19 14:19:53;;;;;;;28.30;9.25;;;;;;;;;;1895100;75;21140;-60
2023/01/19 14:22:23;;;;;;;27.10;10.63;;;;;;;;;;1897735;75;21116;-60
2023/01/19 14:24:52;;;;;;;32.73;8.65;;;;;;;;;;1895766;75;21065;-60
2023/01/19 14:27:22;;;;;;;26.33;7.28;;;;;;;;;;1898801;75;21053;-60
2023/01/19 14:29:53;;;;;;;16.93;6.55;;;;;;;;;;1898405;75;21037;-60
2023/01/19 14:32:22;;;;;;;14.10;6.05;;;;;;;;;;1898705;75;21553;-60
2023/01/19 14:34:52;;;;;;;19.52;6.22;;;;;;;;;;1898634;75;21491;-60
2023/01/19 14:37:22;;;;;;;16.42;5.65;;;;;;;;;;1898662;75;21037;-60
2023/01/19 14:39:52;;;;;;;14.93;5.90;;;;;;;;;;1898669;75;21546;-60
2023/01/19 14:42:22;;;;;;;21.10;7.05;;;;;;;;;;1898678;75;21057;-60
2023/01/19 14:44:52;;;;;;;24.47;6.78;;;;;;;;;;1898969;75;21030;-60
2023/01/19 14:47:28;;;;;;;20.45;6.37;;;;;;;;;;1898864;75;21505;-60
2023/01/19 14:49:58;;;;;;;21.57;8.05;;;;;;;;;;1898796;75;21089;-60
2023/01/19 14:52:27;;;;;;;22.27;8.38;;;;;;;;;;1898843;75;21131;-60
2023/01/19 14:54:57;;;;;;;34.80;8.35;;;;;;;;;;1898777;75;21088;-60
2023/01/19 14:57:25;;;;;;;32.23;7.83;;;;;;;;;;1898820;75;21107;-60
2023/01/19 14:59:54;;;;;;;23.02;7.72;;;;;;;;;;1898738;75;21049;-60